createdAt,value
2018-07-19T00:00:50.839Z,29.7
2018-07-19T00:01:50.851Z,29.41
2018-07-19T00:02:50.883Z,29.9
2018-07-19T00:03:51.414Z,29.9
2018-07-19T00:04:50.928Z,29.8
2018-07-19T00:05:50.957Z,29.99
2018-07-19T00:06:50.714Z,29.9
2018-07-19T00:07:51.006Z,29.9
2018-07-19T00:08:50.767Z,30.08
2018-07-19T00:09:51.602Z,29.9
2018-07-19T00:10:51.089Z,30.08
2018-07-19T00:11:50.845Z,30.27
2018-07-19T00:12:51.134Z,30.08
2018-07-19T00:13:50.896Z,30.18
2018-07-19T00:14:51.201Z,30.27
2018-07-19T00:15:51.225Z,30.28
2018-07-19T00:16:51.638Z,30.38
2018-07-19T00:17:51.269Z,30.28
2018-07-19T00:18:51.068Z,30.27
2018-07-19T00:19:51.335Z,30.27
2018-07-19T00:20:51.742Z,30.36
2018-07-19T00:21:51.372Z,30.27
2018-07-19T00:22:51.391Z,30.36
2018-07-19T00:23:51.424Z,30.36
2018-07-19T00:24:52.031Z,30.36
2018-07-19T00:25:51.475Z,30.55
2018-07-19T00:26:51.227Z,30.65
2018-07-19T00:27:51.897Z,30.46
2018-07-19T00:28:51.561Z,30.46
2018-07-19T00:29:51.584Z,30.55
2018-07-19T00:30:51.602Z,30.46
2018-07-19T00:31:52.060Z,30.46
2018-07-19T00:32:51.658Z,30.36
2018-07-19T00:33:51.812Z,30.17
2018-07-19T00:34:51.429Z,30.75
2018-07-19T00:35:51.457Z,30.85
2018-07-19T00:36:51.749Z,30.85
2018-07-19T00:37:51.773Z,30.93
2018-07-19T00:38:52.260Z,30.75
2018-07-19T00:39:51.559Z,30.75
2018-07-19T00:40:51.852Z,30.85
2018-07-19T00:41:51.890Z,30.85
2018-07-19T00:42:51.632Z,30.63
2018-07-19T00:43:51.933Z,31.22
2018-07-19T00:44:51.959Z,30.54
2018-07-19T00:45:51.986Z,30.73
2018-07-19T00:46:51.734Z,31.02
2018-07-19T00:47:52.036Z,30.93
2018-07-19T00:48:52.052Z,31.12
2018-07-19T00:49:52.083Z,30.93
2018-07-19T00:50:52.534Z,31.02
2018-07-19T00:51:51.861Z,31.31
2018-07-19T00:52:52.153Z,31.31
2018-07-19T00:53:52.189Z,31.31
2018-07-19T00:54:51.940Z,31.31
2018-07-19T00:55:51.965Z,31.12
2018-07-19T00:56:51.986Z,31.22
2018-07-19T00:57:52.011Z,31.22
2018-07-19T00:58:52.302Z,31.22
2018-07-19T00:59:52.062Z,31.22
2018-07-19T01:00:52.365Z,31.1
2018-07-19T01:01:52.848Z,31.1
2018-07-19T01:02:52.135Z,31.49
2018-07-19T01:03:52.438Z,31.41
2018-07-19T01:04:52.479Z,31.4
2018-07-19T01:05:53.033Z,31.4
2018-07-19T01:06:52.507Z,31.59
2018-07-19T01:07:52.526Z,31.49
2018-07-19T01:08:52.287Z,31.4
2018-07-19T01:09:52.585Z,31.4
2018-07-19T01:10:52.338Z,31.49
2018-07-19T01:11:52.636Z,31.4
2018-07-19T01:12:53.178Z,31.4
2018-07-19T01:13:52.684Z,31.3
2018-07-19T01:14:52.702Z,31.49
2018-07-19T01:15:53.281Z,31.68
2018-07-19T01:16:52.492Z,32.07
2018-07-19T01:17:52.786Z,31.78
2018-07-19T01:18:52.807Z,31.68
2018-07-19T01:19:53.459Z,31.78
2018-07-19T01:20:52.875Z,31.88
2018-07-19T01:21:52.611Z,31.68
2018-07-19T01:22:53.582Z,31.68
2018-07-19T01:23:52.664Z,32.17
2018-07-19T01:24:52.956Z,31.98
2018-07-19T01:25:53.494Z,31.98
2018-07-19T01:26:53.001Z,32.07
2018-07-19T01:27:53.037Z,31.88
2018-07-19T01:28:53.432Z,31.98
2018-07-19T01:29:53.539Z,31.78
2018-07-19T01:30:53.115Z,31.86
2018-07-19T01:31:53.125Z,31.86
2018-07-19T01:32:53.383Z,32.06
2018-07-19T01:33:52.907Z,31.76
2018-07-19T01:34:53.202Z,31.67
2018-07-19T01:35:53.232Z,31.76
2018-07-19T01:36:53.253Z,32.24
2018-07-19T01:37:53.271Z,32.15
2018-07-19T01:38:53.334Z,32.24
2018-07-19T01:39:53.332Z,32.34
2018-07-19T01:40:53.971Z,32.06
2018-07-19T01:41:53.374Z,32.34
2018-07-19T01:42:53.399Z,32.24
2018-07-19T01:43:53.419Z,32.06
2018-07-19T01:44:53.451Z,32.15
2018-07-19T01:45:53.205Z,32.06
2018-07-19T01:46:53.515Z,32.73
2018-07-19T01:47:54.063Z,31.86
2018-07-19T01:48:53.278Z,32.06
2018-07-19T01:49:53.306Z,32.34
2018-07-19T01:50:53.328Z,32.82
2018-07-19T01:51:53.795Z,32.54
2018-07-19T01:52:53.644Z,32.73
2018-07-19T01:53:53.444Z,32.73
2018-07-19T01:54:53.425Z,32.64
2018-07-19T01:55:53.721Z,32.34
2018-07-19T01:56:54.187Z,32.44
2018-07-19T01:57:53.769Z,32.43
2018-07-19T01:58:53.813Z,32.44
2018-07-19T01:59:54.414Z,32.33
2018-07-19T02:00:53.574Z,32.23
2018-07-19T02:01:53.877Z,32.33
2018-07-19T02:02:54.438Z,32.33
2018-07-19T02:03:53.922Z,32.33
2018-07-19T02:04:53.945Z,32.52
2018-07-19T02:05:54.489Z,32.71
2018-07-19T02:06:53.996Z,32.52
2018-07-19T02:07:54.016Z,33
2018-07-19T02:08:54.039Z,32.81
2018-07-19T02:09:54.512Z,32.91
2018-07-19T02:10:53.819Z,32.71
2018-07-19T02:11:53.841Z,32.91
2018-07-19T02:12:54.558Z,32.81
2018-07-19T02:13:54.156Z,33.2
2018-07-19T02:14:54.178Z,33.2
2018-07-19T02:15:54.685Z,33.29
2018-07-19T02:16:54.228Z,32.91
2018-07-19T02:17:53.992Z,32.81
2018-07-19T02:18:54.754Z,33.1
2018-07-19T02:19:54.313Z,33.1
2018-07-19T02:20:54.333Z,33.1
2018-07-19T02:21:54.351Z,33.1
2018-07-19T02:22:54.112Z,32.91
2018-07-19T02:23:54.133Z,33
2018-07-19T02:24:54.160Z,33.1
2018-07-19T02:25:54.182Z,32.91
2018-07-19T02:26:54.205Z,33.39
2018-07-19T02:27:54.514Z,33.48
2018-07-19T02:28:54.255Z,33.18
2018-07-19T02:29:54.279Z,33.09
2018-07-19T02:30:54.588Z,33.2
2018-07-19T02:31:54.599Z,33.18
2018-07-19T02:32:54.630Z,33.37
2018-07-19T02:33:54.645Z,33.28
2018-07-19T02:34:55.304Z,33.37
2018-07-19T02:35:54.743Z,33.57
2018-07-19T02:36:54.448Z,33.48
2018-07-19T02:37:55.420Z,33.47
2018-07-19T02:38:54.495Z,33.66
2018-07-19T02:39:54.524Z,33.95
2018-07-19T02:40:55.504Z,33.86
2018-07-19T02:41:54.837Z,33.95
2018-07-19T02:42:54.858Z,33.76
2018-07-19T02:43:55.058Z,33.66
2018-07-19T02:44:55.511Z,33.95
2018-07-19T02:45:54.932Z,33.86
2018-07-19T02:46:54.969Z,33.86
2018-07-19T02:47:55.449Z,33.76
2018-07-19T02:48:55.083Z,33.86
2018-07-19T02:49:54.760Z,34.05
2018-07-19T02:50:55.601Z,33.66
2018-07-19T02:51:55.001Z,33.95
2018-07-19T02:52:55.105Z,33.86
2018-07-19T02:53:55.702Z,33.76
2018-07-19T02:54:54.880Z,33.95
2018-07-19T02:55:55.173Z,34.14
2018-07-19T02:56:55.372Z,33.86
2018-07-19T02:57:55.788Z,34.05
2018-07-19T02:58:55.735Z,34.05
2018-07-19T02:59:55.393Z,33.95
2018-07-19T03:00:55.976Z,33.95
2018-07-19T03:01:55.766Z,33.95
2018-07-19T03:02:55.749Z,33.76
2018-07-19T03:03:55.227Z,33.57
2018-07-19T03:04:56.199Z,34.53
2018-07-19T03:05:55.582Z,34.03
2018-07-19T03:06:55.747Z,34.61
2018-07-19T03:07:56.031Z,34.61
2018-07-19T03:08:55.736Z,34.52
2018-07-19T03:09:55.900Z,34.52
2018-07-19T03:10:56.292Z,34.03
2018-07-19T03:11:55.978Z,34.13
2018-07-19T03:12:56.076Z,34.22
2018-07-19T03:13:56.469Z,34.32
2018-07-19T03:14:55.621Z,34.42
2018-07-19T03:15:55.648Z,34.22
2018-07-19T03:16:55.677Z,34.22
2018-07-19T03:17:56.132Z,34.22
2018-07-19T03:18:55.451Z,34.13
2018-07-19T03:19:56.103Z,34.03
2018-07-19T03:20:56.444Z,34.22
2018-07-19T03:21:56.279Z,34.13
2018-07-19T03:22:56.115Z,34.22
2018-07-19T03:23:56.562Z,34.03
2018-07-19T03:24:56.057Z,34.61
2018-07-19T03:25:55.797Z,34.61
2018-07-19T03:26:55.995Z,34.7
2018-07-19T03:27:55.938Z,34.52
2018-07-19T03:28:55.974Z,34.52
2018-07-19T03:29:55.994Z,34.61
2018-07-19T03:30:56.238Z,34.52
2018-07-19T03:31:55.768Z,34.8
2018-07-19T03:32:56.053Z,34.7
2018-07-19T03:33:56.611Z,35
2018-07-19T03:34:56.104Z,35.1
2018-07-19T03:35:56.124Z,34.8
2018-07-19T03:36:56.758Z,35
2018-07-19T03:37:56.170Z,35
2018-07-19T03:38:56.205Z,34.98
2018-07-19T03:39:56.551Z,34.78
2018-07-19T03:40:56.270Z,35.27
2018-07-19T03:41:56.261Z,35.27
2018-07-19T03:42:56.865Z,35.27
2018-07-19T03:43:56.309Z,35.36
2018-07-19T03:44:56.337Z,35.36
2018-07-19T03:45:56.920Z,35.27
2018-07-19T03:46:56.394Z,35.27
2018-07-19T03:47:56.138Z,35.36
2018-07-19T03:48:56.942Z,35.17
2018-07-19T03:49:56.186Z,35.36
2018-07-19T03:50:56.492Z,35.46
2018-07-19T03:51:56.514Z,35.36
2018-07-19T03:52:57.012Z,35.36
2018-07-19T03:53:56.549Z,35.46
2018-07-19T03:54:56.304Z,35.36
2018-07-19T03:55:56.332Z,35.46
2018-07-19T03:56:56.631Z,35.46
2018-07-19T03:57:56.642Z,35.36
2018-07-19T03:58:57.308Z,35.36
2018-07-19T03:59:56.420Z,35.36
2018-07-19T04:00:56.445Z,35.36
2018-07-19T04:01:57.250Z,35.36
2018-07-19T04:02:56.497Z,35.56
2018-07-19T04:03:56.791Z,35.75
2018-07-19T04:04:57.151Z,35.75
2018-07-19T04:05:56.831Z,35.65
2018-07-19T04:06:56.850Z,35.65
2018-07-19T04:07:56.608Z,35.56
2018-07-19T04:08:56.902Z,35.65
2018-07-19T04:09:56.927Z,35.56
2018-07-19T04:10:56.950Z,35.56
2018-07-19T04:11:56.702Z,35.56
2018-07-19T04:12:56.996Z,35.65
2018-07-19T04:13:57.021Z,35.46
2018-07-19T04:14:57.569Z,35.46
2018-07-19T04:15:57.599Z,35.46
2018-07-19T04:16:57.436Z,35.75
2018-07-19T04:17:57.206Z,36.13
2018-07-19T04:18:57.956Z,36.13
2018-07-19T04:19:57.416Z,36.04
2018-07-19T04:20:57.173Z,36.13
2018-07-19T04:21:58.148Z,36.04
2018-07-19T04:22:57.746Z,36.33
2018-07-19T04:23:57.774Z,36.23
2018-07-19T04:24:58.055Z,36.33
2018-07-19T04:25:58.172Z,36.41
2018-07-19T04:26:57.396Z,36.51
2018-07-19T04:27:57.602Z,36.33
2018-07-19T04:28:58.543Z,36.31
2018-07-19T04:29:57.334Z,36.33
2018-07-19T04:30:57.921Z,36.21
2018-07-19T04:31:57.635Z,36.41
2018-07-19T04:32:58.419Z,36.43
2018-07-19T04:33:58.063Z,36.33
2018-07-19T04:34:57.720Z,36.61
2018-07-19T04:35:58.064Z,36.61
2018-07-19T04:36:57.281Z,36.71
2018-07-19T04:37:57.310Z,36.79
2018-07-19T04:38:57.601Z,36.79
2018-07-19T04:39:57.352Z,36.71
2018-07-19T04:40:57.658Z,36.04
2018-07-19T04:41:57.678Z,36.51
2018-07-19T04:42:58.228Z,36.79
2018-07-19T04:43:57.710Z,36.69
2018-07-19T04:44:57.469Z,36.79
2018-07-19T04:45:57.497Z,37.08
2018-07-19T04:46:57.779Z,36.89
2018-07-19T04:47:57.821Z,36.89
2018-07-19T04:48:57.827Z,36.81
2018-07-19T04:49:58.430Z,36.99
2018-07-19T04:50:57.887Z,36.81
2018-07-19T04:51:57.629Z,36.89
2018-07-19T04:52:58.368Z,36.69
2018-07-19T04:53:57.957Z,36.89
2018-07-19T04:54:57.698Z,36.69
2018-07-19T04:55:57.722Z,36.31
2018-07-19T04:56:58.519Z,36.69
2018-07-19T04:57:58.048Z,36.99
2018-07-19T04:58:57.791Z,36.51
2018-07-19T04:59:58.521Z,37.18
2018-07-19T05:00:57.840Z,37.27
2018-07-19T05:01:57.914Z,37.18
2018-07-19T05:02:57.884Z,37.08
2018-07-19T05:03:57.908Z,37.08
2018-07-19T05:04:57.932Z,37.08
2018-07-19T05:05:57.954Z,37.18
2018-07-19T05:06:58.615Z,37.18
2018-07-19T05:07:58.273Z,36.99
2018-07-19T05:08:58.289Z,37.18
2018-07-19T05:09:58.850Z,37.76
2018-07-19T05:10:58.087Z,37.76
2018-07-19T05:11:58.096Z,37.66
2018-07-19T05:12:58.114Z,37.66
2018-07-19T05:13:58.880Z,37.56
2018-07-19T05:14:58.646Z,37.76
2018-07-19T05:15:58.751Z,37.56
2018-07-19T05:16:59.101Z,37.85
2018-07-19T05:17:58.502Z,37.95
2018-07-19T05:18:58.525Z,37.56
2018-07-19T05:19:58.561Z,37.76
2018-07-19T05:20:58.301Z,37.76
2018-07-19T05:21:58.593Z,38.04
2018-07-19T05:22:58.618Z,37.95
2018-07-19T05:23:58.634Z,37.95
2018-07-19T05:24:59.358Z,37.95
2018-07-19T05:25:58.688Z,37.66
2018-07-19T05:26:58.767Z,37.66
2018-07-19T05:27:59.243Z,37.76
2018-07-19T05:28:58.777Z,37.66
2018-07-19T05:29:58.773Z,37.46
2018-07-19T05:30:59.296Z,37.85
2018-07-19T05:31:58.822Z,38.14
2018-07-19T05:32:58.864Z,38.04
2018-07-19T05:33:58.891Z,38.04
2018-07-19T05:34:59.348Z,38.14
2018-07-19T05:35:58.922Z,38.24
2018-07-19T05:36:58.974Z,37.76
2018-07-19T05:37:59.613Z,38.24
2018-07-19T05:38:59.015Z,37.66
2018-07-19T05:39:59.007Z,38.24
2018-07-19T05:40:59.029Z,38.24
2018-07-19T05:41:58.823Z,38.24
2018-07-19T05:42:58.804Z,38.33
2018-07-19T05:43:59.117Z,38.24
2018-07-19T05:44:59.118Z,37.85
2018-07-19T05:45:59.718Z,38.04
2018-07-19T05:46:59.163Z,38.24
2018-07-19T05:47:59.212Z,38.33
2018-07-19T05:48:59.644Z,38.33
2018-07-19T05:49:59.334Z,38.33
2018-07-19T05:50:59.257Z,38.24
2018-07-19T05:51:59.299Z,38.43
2018-07-19T05:52:59.703Z,38.53
2018-07-19T05:53:59.372Z,37.95
2018-07-19T05:54:59.346Z,38.53
2018-07-19T05:55:59.973Z,38.43
2018-07-19T05:56:59.449Z,38.53
2018-07-19T05:57:59.147Z,38.43
2018-07-19T05:58:59.447Z,38.53
2018-07-19T05:59:59.195Z,38.53
2018-07-19T06:00:59.479Z,38.33
2018-07-19T06:01:59.534Z,38.43
2018-07-19T06:03:00.041Z,38.06
2018-07-19T06:03:59.289Z,38.43
2018-07-19T06:04:59.585Z,38.53
2018-07-19T06:06:00.126Z,38.33
2018-07-19T06:06:59.633Z,38.33
2018-07-19T06:07:59.654Z,38.24
2018-07-19T06:09:00.270Z,38.54
2018-07-19T06:09:59.701Z,38.72
2018-07-19T06:10:59.719Z,38.06
2018-07-19T06:11:59.737Z,38.45
2018-07-19T06:12:59.494Z,38.83
2018-07-19T06:13:59.787Z,38.72
2018-07-19T06:14:59.540Z,38.72
2018-07-19T06:15:59.880Z,38.81
2018-07-19T06:17:00.388Z,38.33
2018-07-19T06:17:59.886Z,38.72
2018-07-19T06:18:59.913Z,38.45
2018-07-19T06:19:59.928Z,38.83
2018-07-19T06:20:59.679Z,38.83
2018-07-19T06:21:59.974Z,38.74
2018-07-19T06:22:59.997Z,38.83
2018-07-19T06:24:00.507Z,38.83
2018-07-19T06:24:59.769Z,38.83
2018-07-19T06:26:00.067Z,38.83
2018-07-19T06:26:59.813Z,38.93
2018-07-19T06:28:00.111Z,38.93
2018-07-19T06:29:00.151Z,39.12
2018-07-19T06:30:00.157Z,39.03
2018-07-19T06:31:00.178Z,39.12
2018-07-19T06:31:59.931Z,39.22
2018-07-19T06:33:00.225Z,39.12
2018-07-19T06:34:00.253Z,39.12
2018-07-19T06:35:00.879Z,39.12
2018-07-19T06:36:00.318Z,39.12
2018-07-19T06:37:00.327Z,38.93
2018-07-19T06:38:00.070Z,39.03
2018-07-19T06:39:00.363Z,39.22
2018-07-19T06:40:00.396Z,38.93
2018-07-19T06:41:01.093Z,39.22
2018-07-19T06:42:00.434Z,39.41
2018-07-19T06:43:00.456Z,39.41
2018-07-19T06:44:00.208Z,39.41
2018-07-19T06:45:00.501Z,39.51
2018-07-19T06:46:00.530Z,39.41
2018-07-19T06:47:00.885Z,39.51
2018-07-19T06:48:00.567Z,39.51
2018-07-19T06:49:00.601Z,39.61
2018-07-19T06:50:00.618Z,39.7
2018-07-19T06:51:00.639Z,39.61
2018-07-19T06:52:00.669Z,39.61
2018-07-19T06:53:00.415Z,39.22
2018-07-19T06:54:00.434Z,39.61
2018-07-19T06:55:00.748Z,39.89
2018-07-19T06:56:00.748Z,39.91
2018-07-19T06:57:01.315Z,39.89
2018-07-19T06:58:00.792Z,39.53
2018-07-19T06:59:00.817Z,39.51
2018-07-19T07:00:01.254Z,39.43
2018-07-19T07:01:00.871Z,39.24
2018-07-19T07:02:00.902Z,39.53
2018-07-19T07:03:01.653Z,39.43
2018-07-19T07:04:00.954Z,39.53
2018-07-19T07:05:00.955Z,39.62
2018-07-19T07:06:00.983Z,39.62
2018-07-19T07:07:00.997Z,40.11
2018-07-19T07:08:01.034Z,39.62
2018-07-19T07:09:01.215Z,39.62
2018-07-19T07:10:01.643Z,39.62
2018-07-19T07:11:01.094Z,39.91
2018-07-19T07:12:01.269Z,40.3
2018-07-19T07:13:00.878Z,39.82
2018-07-19T07:14:01.178Z,40.01
2018-07-19T07:15:01.301Z,40.01
2018-07-19T07:16:01.811Z,39.91
2018-07-19T07:17:01.245Z,39.94
2018-07-19T07:18:01.278Z,39.74
2018-07-19T07:19:01.900Z,40.12
2018-07-19T07:20:01.313Z,39.64
2018-07-19T07:21:01.059Z,39.64
2018-07-19T07:22:01.961Z,39.64
2018-07-19T07:23:01.397Z,39.94
2018-07-19T07:24:01.423Z,40.03
2018-07-19T07:25:02.041Z,39.74
2018-07-19T07:26:01.444Z,39.64
2018-07-19T07:27:01.197Z,39.64
2018-07-19T07:28:01.223Z,39.64
2018-07-19T07:29:01.525Z,39.66
2018-07-19T07:30:01.534Z,39.76
2018-07-19T07:31:01.569Z,39.76
2018-07-19T07:32:02.134Z,39.76
2018-07-19T07:33:01.337Z,39.66
2018-07-19T07:34:01.700Z,39.57
2018-07-19T07:35:02.207Z,39.66
2018-07-19T07:36:01.406Z,39.18
2018-07-19T07:37:01.430Z,39.49
2018-07-19T07:38:02.230Z,39.59
2018-07-19T07:39:01.975Z,39.49
2018-07-19T07:40:01.780Z,39.39
2018-07-19T07:41:01.800Z,39.49
2018-07-19T07:42:01.835Z,39.2
2018-07-19T07:43:01.621Z,39.2
2018-07-19T07:44:01.989Z,38.91
2018-07-19T07:45:01.620Z,39.22
2018-07-19T07:46:01.924Z,39.03
2018-07-19T07:47:02.499Z,39.03
2018-07-19T07:48:01.960Z,39.03
2018-07-19T07:49:01.716Z,39.12
2018-07-19T07:50:02.479Z,38.74
2018-07-19T07:51:02.038Z,38.93
2018-07-19T07:52:02.051Z,38.83
2018-07-19T07:53:01.824Z,38.74
2018-07-19T07:54:02.096Z,38.85
2018-07-19T07:55:02.122Z,38.66
2018-07-19T07:56:02.186Z,38.76
2018-07-19T07:57:01.901Z,38.85
2018-07-19T07:58:02.195Z,38.56
2018-07-19T07:59:02.217Z,38.56
2018-07-19T08:00:02.893Z,38.28
2018-07-19T08:01:02.267Z,38
2018-07-19T08:02:02.287Z,38.58
2018-07-19T08:03:02.043Z,38
2018-07-19T08:04:02.938Z,38.39
2018-07-19T08:05:02.379Z,38.29
2018-07-19T08:06:02.526Z,37.52
2018-07-19T08:07:02.885Z,37.71
2018-07-19T08:08:02.162Z,37.82
2018-07-19T08:09:02.737Z,37.82
2018-07-19T08:10:03.036Z,37.92
2018-07-19T08:11:02.513Z,37.82
2018-07-19T08:12:02.550Z,38.12
2018-07-19T08:13:03.303Z,38.12
2018-07-19T08:14:02.320Z,38.02
2018-07-19T08:15:03.132Z,37.94
2018-07-19T08:16:02.356Z,37.94
2018-07-19T08:17:02.652Z,37.44
2018-07-19T08:18:02.517Z,37.36
2018-07-19T08:19:03.432Z,36.68
2018-07-19T08:20:02.813Z,36.98
2018-07-19T08:21:02.757Z,37.07
2018-07-19T08:22:02.590Z,36.88
2018-07-19T08:23:02.901Z,37.09
2018-07-19T08:24:02.818Z,36.99
2018-07-19T08:25:03.453Z,36.99
2018-07-19T08:26:02.863Z,36.8
2018-07-19T08:27:02.896Z,36.8
2018-07-19T08:28:03.468Z,36.32
2018-07-19T08:29:03.077Z,36.82
2018-07-19T08:30:02.970Z,36.72
2018-07-19T08:31:03.070Z,36.82
2018-07-19T08:32:02.740Z,36.52
2018-07-19T08:33:03.035Z,36.43
2018-07-19T08:34:03.375Z,36.62
2018-07-19T08:35:03.554Z,35.86
2018-07-19T08:36:03.310Z,35.77
2018-07-19T08:37:02.870Z,35.48
2018-07-19T08:38:02.888Z,36.06
2018-07-19T08:39:03.184Z,35.57
2018-07-19T08:40:02.954Z,35.48
2018-07-19T08:41:03.597Z,35.48
2018-07-19T08:42:03.259Z,35.57
2018-07-19T08:43:03.284Z,35.4
2018-07-19T08:44:03.763Z,35.11
2018-07-19T08:45:03.328Z,35.11
2018-07-19T08:46:03.362Z,34.91
2018-07-19T08:47:03.115Z,35.3
2018-07-19T08:48:03.419Z,35.32
2018-07-19T08:49:03.457Z,35.13
2018-07-19T08:50:03.199Z,35.13
2018-07-19T08:51:03.502Z,34.93
2018-07-19T08:52:03.235Z,34.36
2018-07-19T08:53:03.869Z,34.46
2018-07-19T08:54:03.303Z,33.98
2018-07-19T08:55:03.587Z,34.08
2018-07-19T08:56:03.456Z,33.88
2018-07-19T08:57:04.126Z,34.27
2018-07-19T08:58:03.707Z,34.08
2018-07-19T08:59:03.674Z,33.88
2018-07-19T09:00:03.436Z,33.99
2018-07-19T09:01:03.727Z,34.09
2018-07-19T09:02:03.755Z,34.09
2018-07-19T09:03:03.512Z,33.99
2018-07-19T09:04:03.816Z,34.09
2018-07-19T09:05:03.861Z,34.09
2018-07-19T09:06:03.592Z,34.09
2018-07-19T09:07:03.926Z,33.8
2018-07-19T09:08:04.107Z,33.72
2018-07-19T09:09:03.941Z,33.72
2018-07-19T09:10:04.017Z,33.53
2018-07-19T09:11:03.717Z,33.33
2018-07-19T09:12:03.746Z,33.23
2018-07-19T09:13:03.804Z,33.04
2018-07-19T09:14:04.195Z,32.75
2018-07-19T09:15:03.832Z,32.84
2018-07-19T09:16:03.843Z,32.75
2018-07-19T09:17:03.871Z,32.76
2018-07-19T09:18:04.171Z,32.57
2018-07-19T09:19:03.921Z,32.57
2018-07-19T09:20:03.952Z,32.47
2018-07-19T09:21:03.975Z,32.76
2018-07-19T09:22:04.265Z,31.98
2018-07-19T09:23:04.291Z,32.29
2018-07-19T09:24:05.045Z,32.2
2018-07-19T09:25:04.077Z,31.9
2018-07-19T09:26:04.105Z,31.51
2018-07-19T09:27:04.134Z,31.9
2018-07-19T09:28:04.159Z,31.61
2018-07-19T09:29:04.369Z,31.61
2018-07-19T09:30:05.265Z,31.41
2018-07-19T09:31:04.261Z,31.61
2018-07-19T09:32:04.262Z,31.71
2018-07-19T09:33:04.288Z,31.51
2018-07-19T09:34:04.315Z,31.61
2018-07-19T09:35:04.403Z,31.71
2018-07-19T09:36:04.652Z,30.85
2018-07-19T09:37:05.299Z,30.85
2018-07-19T09:38:04.717Z,30.75
2018-07-19T09:39:04.448Z,30.46
2018-07-19T09:40:04.748Z,30.94
2018-07-19T09:41:05.342Z,30.75
2018-07-19T09:42:04.940Z,30.46
2018-07-19T09:43:04.555Z,30.67
2018-07-19T09:44:05.562Z,30.36
2018-07-19T09:45:04.891Z,30.08
2018-07-19T09:46:04.914Z,29.99
2018-07-19T09:47:05.435Z,29.89
2018-07-19T09:48:04.688Z,29.89
2018-07-19T09:49:04.716Z,29.79
2018-07-19T09:50:05.086Z,29.6
2018-07-19T09:51:04.769Z,29.71
2018-07-19T09:52:05.062Z,29.32
2018-07-19T09:53:05.174Z,29.32
2018-07-19T09:54:05.733Z,29.71
2018-07-19T09:55:05.163Z,29.13
2018-07-19T09:56:04.911Z,28.83
2018-07-19T09:57:05.202Z,28.75
2018-07-19T09:58:05.874Z,28.74
2018-07-19T09:59:05.252Z,28.94
2018-07-19T10:00:05.317Z,28.55
2018-07-19T10:01:05.042Z,28.65
2018-07-19T10:02:05.065Z,27.98
2018-07-19T10:03:05.094Z,28.08
2018-07-19T10:04:05.403Z,28.18
2018-07-19T10:05:05.417Z,27.69
2018-07-19T10:06:05.245Z,27.9
2018-07-19T10:07:05.481Z,27.79
2018-07-19T10:08:06.049Z,27.51
2018-07-19T10:09:05.257Z,27.41
2018-07-19T10:10:05.720Z,27.12
2018-07-19T10:11:05.582Z,27.02
2018-07-19T10:12:05.372Z,27.51
2018-07-19T10:13:05.650Z,26.93
2018-07-19T10:14:05.672Z,27.62
2018-07-19T10:15:06.294Z,27.13
2018-07-19T10:16:05.451Z,27.33
2018-07-19T10:17:05.480Z,27.13
2018-07-19T10:18:05.781Z,27.15
2018-07-19T10:19:06.188Z,26.56
2018-07-19T10:20:05.570Z,26.57
2018-07-19T10:21:05.860Z,25.7
2018-07-19T10:22:05.888Z,25.99
2018-07-19T10:23:06.504Z,25.5
2018-07-19T10:24:05.946Z,25.6
2018-07-19T10:25:05.971Z,25.31
2018-07-19T10:26:06.565Z,25.31
2018-07-19T10:27:05.761Z,25.31
2018-07-19T10:28:05.788Z,25.32
2018-07-19T10:29:06.086Z,25.32
2018-07-19T10:30:06.615Z,25.51
2018-07-19T10:31:05.872Z,25.61
2018-07-19T10:32:06.513Z,25.22
2018-07-19T10:33:05.929Z,25.23
2018-07-19T10:34:05.965Z,25.04
2018-07-19T10:35:05.988Z,24.44
2018-07-19T10:36:06.020Z,24.25
2018-07-19T10:37:06.875Z,24.55
2018-07-19T10:38:06.349Z,23.68
2018-07-19T10:39:06.104Z,24.16
2018-07-19T10:40:06.417Z,23.87
2018-07-19T10:41:06.764Z,23.87
2018-07-19T10:42:06.466Z,23.58
2018-07-19T10:43:06.610Z,24.07
2018-07-19T10:44:06.646Z,24.16
2018-07-19T10:45:07.169Z,23.87
2018-07-19T10:46:06.771Z,23.87
2018-07-19T10:47:06.619Z,23.98
2018-07-19T10:48:06.362Z,24.08
2018-07-19T10:49:06.655Z,23.69
2018-07-19T10:50:06.458Z,23.8
2018-07-19T10:51:06.708Z,23.6
2018-07-19T10:52:06.804Z,23.8
2018-07-19T10:53:06.774Z,23.02
2018-07-19T10:54:06.539Z,22.92
2018-07-19T10:55:06.567Z,23.02
2018-07-19T10:56:06.856Z,22.84
2018-07-19T10:57:06.632Z,22.34
2018-07-19T10:58:06.919Z,22.25
2018-07-19T10:59:06.948Z,22.83
2018-07-19T11:00:06.974Z,22.53
2018-07-19T11:01:07.002Z,22.74
2018-07-19T11:02:07.034Z,22.55
2018-07-19T11:03:07.073Z,22.55
2018-07-19T11:04:07.097Z,22.64
2018-07-19T11:05:06.860Z,22.84
2018-07-19T11:06:06.892Z,22.75
2018-07-19T11:07:07.181Z,22.46
2018-07-19T11:08:06.958Z,22.36
2018-07-19T11:09:07.246Z,22.46
2018-07-19T11:10:07.333Z,22.27
2018-07-19T11:11:07.302Z,21.88
2018-07-19T11:12:07.341Z,21.59
2018-07-19T11:13:07.103Z,21.19
2018-07-19T11:14:07.393Z,21.59
2018-07-19T11:15:07.424Z,21.5
2018-07-19T11:16:07.454Z,21.59
2018-07-19T11:17:07.224Z,21.59
2018-07-19T11:18:07.619Z,21.61
2018-07-19T11:19:07.285Z,21.51
2018-07-19T11:20:07.315Z,21.12
2018-07-19T11:21:07.655Z,21.22
2018-07-19T11:22:07.639Z,21.62
2018-07-19T11:23:07.666Z,20.93
2018-07-19T11:24:07.700Z,20.73
2018-07-19T11:25:07.469Z,20.64
2018-07-19T11:26:07.757Z,20.44
2018-07-19T11:27:07.789Z,20.35
2018-07-19T11:28:07.820Z,20.54
2018-07-19T11:29:07.593Z,20.54
2018-07-19T11:30:07.885Z,20.75
2018-07-19T11:31:07.919Z,20.46
2018-07-19T11:32:07.945Z,19.87
2018-07-19T11:33:07.711Z,19.96
2018-07-19T11:34:07.745Z,20.26
2018-07-19T11:35:07.776Z,19.87
2018-07-19T11:36:08.069Z,19.68
2018-07-19T11:37:07.836Z,19.88
2018-07-19T11:38:08.127Z,19.38
2018-07-19T11:39:08.165Z,19.48
2018-07-19T11:40:07.930Z,19.19
2018-07-19T11:41:07.961Z,19.49
2018-07-19T11:42:08.253Z,19.3
2018-07-19T11:43:08.295Z,19.01
2018-07-19T11:44:08.315Z,18.81
2018-07-19T11:45:08.089Z,18.32
2018-07-19T11:46:08.384Z,18.62
2018-07-19T11:47:08.410Z,18.32
2018-07-19T11:48:08.184Z,18.23
2018-07-19T11:49:08.484Z,17.83
2018-07-19T11:50:08.506Z,18.23
2018-07-19T11:51:08.540Z,18.23
2018-07-19T11:52:08.584Z,18.23
2018-07-19T11:53:08.343Z,18.12
2018-07-19T11:54:08.373Z,17.83
2018-07-19T11:55:08.670Z,18.04
2018-07-19T11:56:08.435Z,18.04
2018-07-19T11:57:08.728Z,17.74
2018-07-19T11:58:08.763Z,17.74
2018-07-19T11:59:08.800Z,17.44
2018-07-19T12:00:08.825Z,17.44
2018-07-19T12:01:08.860Z,17.75
2018-07-19T12:02:08.891Z,17.45
2018-07-19T12:03:08.922Z,17.35
2018-07-19T12:04:08.957Z,17.26
2018-07-19T12:05:08.989Z,17.16
2018-07-19T12:06:09.021Z,16.97
2018-07-19T12:07:09.050Z,17.07
2018-07-19T12:08:08.823Z,16.68
2018-07-19T12:09:09.117Z,16.78
2018-07-19T12:10:08.890Z,16.88
2018-07-19T12:11:08.921Z,16.78
2018-07-19T12:12:08.953Z,16.59
2018-07-19T12:13:08.989Z,16.49
2018-07-19T12:14:09.284Z,16.6
2018-07-19T12:15:09.319Z,16.1
2018-07-19T12:16:09.349Z,16.1
2018-07-19T12:17:09.380Z,16.1
2018-07-19T12:18:09.565Z,16.2
2018-07-19T12:19:09.446Z,15.51
2018-07-19T12:20:09.480Z,15.41
2018-07-19T12:21:09.513Z,15.61
2018-07-19T12:22:09.559Z,16
2018-07-19T12:23:09.576Z,16.29
2018-07-19T12:24:09.624Z,16.19
2018-07-19T12:25:09.656Z,16.1
2018-07-19T12:26:09.674Z,16.2
2018-07-19T12:27:09.741Z,16.1
2018-07-19T12:28:09.485Z,16
2018-07-19T12:29:09.794Z,16.31
2018-07-19T12:30:09.809Z,16.01
2018-07-19T12:31:09.897Z,15.52
2018-07-19T12:32:09.614Z,15.72
2018-07-19T12:33:09.908Z,15.61
2018-07-19T12:34:09.946Z,15.32
2018-07-19T12:35:09.973Z,15.22
2018-07-19T12:36:10.029Z,15.81
2018-07-19T12:37:09.781Z,15.61
2018-07-19T12:38:10.077Z,15.61
2018-07-19T12:39:09.846Z,15.52
2018-07-19T12:40:09.885Z,15.61
2018-07-19T12:41:09.913Z,15.61
2018-07-19T12:42:09.948Z,15.63
2018-07-19T12:43:10.248Z,15.82
2018-07-19T12:44:10.018Z,15.63
2018-07-19T12:45:10.308Z,15.23
2018-07-19T12:46:10.353Z,15.14
2018-07-19T12:47:10.376Z,14.94
2018-07-19T12:48:10.153Z,15.14
2018-07-19T12:49:10.450Z,14.95
2018-07-19T12:50:10.217Z,14.65
2018-07-19T12:51:10.510Z,14.75
2018-07-19T12:52:10.713Z,14.75
2018-07-19T12:53:10.586Z,14.75
2018-07-19T12:54:10.614Z,14.75
2018-07-19T12:55:10.647Z,14.95
2018-07-19T12:56:10.689Z,14.65